Time;durP1;ratioP1;P1;durP2;ratioP2;P2;SDS_P1;SDS_P2;PMS_P1;PMS_P2;Temp;Humidity;BMP_temperature;BMP_pressure;BME280_temperature;BME280_humidity;BME280_pressure;Samples;Min_cycle;Max_cycle;Signal;HPM_P1;HPM_P2
2022/06/14 00:03:18;;;;;;;;;;;;;;;-148.88;86.72;76532.91;4999544;28;20033;-85
2022/06/14 00:05:44;;;;;;;6.03;3.38;;;;;;;-148.88;85.81;76524.78;4997137;28;19910;-85
2022/06/14 00:08:11;;;;;;;10.30;3.60;;;;;;;-148.88;85.07;76514.63;4982157;28;20568;-84
2022/06/14 00:10:36;;;;;;;7.65;3.15;;;;;;;-148.88;84.86;76502.44;4997423;28;20030;-84
2022/06/14 00:13:02;;;;;;;8.63;3.30;;;;;;;-148.88;84.90;76498.38;4982039;28;20102;-85
2022/06/14 00:15:28;;;;;;;10.70;3.47;;;;;;;-148.88;85.15;76492.28;4999299;28;20468;-84
2022/06/14 00:17:53;;;;;;;7.03;3.25;;;;;;;-148.88;84.74;76494.31;4999417;28;20076;-84
2022/06/14 00:20:19;;;;;;;8.05;3.40;;;;;;;-148.88;85.15;76480.09;4981530;28;20080;-84
2022/06/14 00:22:44;;;;;;;7.00;3.40;;;;;;;-148.88;84.09;76484.16;4999313;28;20022;-85
2022/06/14 00:25:22;;;;;;;11.35;3.10;;;;;;;-148.88;84.25;76490.25;4978723;28;20036;-83
2022/06/14 00:27:48;;;;;;;5.85;3.45;;;;;;;-148.88;84.66;76490.25;4995134;28;20061;-85
2022/06/14 00:30:13;;;;;;;6.50;3.10;;;;;;;-148.88;84.55;76492.28;4995460;28;20030;-84
2022/06/14 00:32:38;;;;;;;7.68;3.30;;;;;;;-148.88;84.46;76494.31;4979866;28;20026;-85
2022/06/14 00:35:04;;;;;;;6.72;2.53;;;;;;;-148.88;84.17;76508.53;4999434;28;20481;-85
2022/06/14 00:37:29;;;;;;;6.10;2.88;;;;;;;-148.88;83.99;76512.59;4998692;28;20085;-84
2022/06/14 00:39:54;;;;;;;6.35;3.10;;;;;;;-148.88;84.21;76512.59;4997526;28;20481;-85
2022/06/14 00:42:22;;;;;;;9.30;3.83;;;;;;;-148.88;84.67;76514.63;4999566;28;20033;-85
2022/06/14 00:45:22;;;;;;;6.85;3.50;;;;;;;-148.88;85.49;76512.59;4999005;28;20026;-85
2022/06/14 00:47:58;;;;;;;5.25;3.22;;;;;;;-148.88;85.34;76516.66;4950652;28;20386;-85
2022/06/14 00:50:40;;;;;;;6.72;3.47;;;;;;;-148.88;85.68;76528.84;4999650;28;20081;-85
2022/06/14 00:53:13;;;;;;;10.02;4.05;;;;;;;-148.88;86.35;76549.16;4998336;28;20026;-85
2022/06/14 00:55:45;;;;;;;11.50;3.63;;;;;;;-148.88;86.79;76547.13;4998560;28;20027;-85
2022/06/14 00:58:26;;;;;;;9.73;3.72;;;;;;;-148.88;87.23;76543.06;4999286;28;20503;-85
2022/06/14 01:00:59;;;;;;;10.07;4.00;;;;;;;-148.88;87.30;76549.16;4998447;28;20519;-84
2022/06/14 01:03:28;;;;;;;12.23;3.42;;;;;;;-148.88;87.13;76543.06;4998368;28;20025;-84
2022/06/14 01:06:07;;;;;;;6.68;3.35;;;;;;;-148.88;87.11;76549.16;4977076;28;20370;-84
2022/06/14 01:08:44;;;;;;;5.57;3.08;;;;;;;-148.88;87.09;76545.09;4979650;28;20053;-84
2022/06/14 01:11:13;;;;;;;6.38;3.47;;;;;;;-148.88;86.38;76545.09;4981076;28;20033;-84
2022/06/14 01:13:40;;;;;;;9.73;3.55;;;;;;;-148.88;86.25;76536.97;4997859;28;20149;-85
2022/06/14 01:16:06;;;;;;;7.05;3.42;;;;;;;-148.88;86.23;76536.97;4997766;28;20026;-85
2022/06/14 01:18:31;;;;;;;6.65;3.40;;;;;;;-148.88;86.58;76545.09;4999530;28;20036;-85
2022/06/14 01:20:56;;;;;;;6.72;2.90;;;;;;;-148.88;86.94;76543.06;5000250;28;20057;-85
2022/06/14 01:23:22;;;;;;;7.18;3.42;;;;;;;-148.88;86.49;76553.22;5002476;28;20046;-85
2022/06/14 01:25:54;;;;;;;10.43;3.22;;;;;;;-148.88;87.01;76563.38;5001797;28;20481;-85
2022/06/14 01:28:24;;;;;;;6.40;3.35;;;;;;;-148.88;87.41;76557.28;5002729;28;20030;-85
2022/06/14 01:30:52;;;;;;;7.88;3.30;;;;;;;-148.88;87.13;76561.34;5002630;28;20032;-85
2022/06/14 01:33:28;;;;;;;7.80;3.38;;;;;;;-148.88;87.04;76573.53;4984255;28;20061;-85
2022/06/14 01:36:06;;;;;;;5.95;2.97;;;;;;;-148.88;87.16;76581.66;5000919;28;20026;-85
2022/06/14 01:38:31;;;;;;;7.20;3.10;;;;;;;-148.88;87.28;76575.56;5008603;28;20029;-85
2022/06/14 01:41:06;;;;;;;6.88;3.20;;;;;;;-148.88;87.32;76585.72;5002005;28;20026;-84
2022/06/14 01:44:01;;;;;;;7.45;3.28;;;;;;;-148.88;87.49;76587.75;4981231;28;20678;-85
2022/06/14 01:46:31;;;;;;;5.88;3.47;;;;;;;-148.88;87.40;76595.88;5001486;28;20449;-85
2022/06/14 01:52:02;;;;;;;9.15;3.85;;;;;;;-148.88;87.60;76606.06;5001968;28;20106;-85
2022/06/14 01:54:34;;;;;;;7.40;3.20;;;;;;;-148.88;88.36;76597.91;5001956;28;20140;-85
2022/06/14 01:57:20;;;;;;;7.53;3.40;;;;;;;-148.88;88.44;76608.09;4984349;28;20033;-85
2022/06/14 02:00:00;;;;;;;7.57;3.10;;;;;;;-148.88;88.82;76612.13;5000947;28;20018;-85
2022/06/14 02:02:38;;;;;;;6.18;3.33;;;;;;;-148.88;89.38;76626.38;5001654;28;20022;-85
2022/06/14 02:05:09;;;;;;;7.78;3.33;;;;;;;-148.88;88.77;76626.38;5001989;28;20030;-85
2022/06/14 02:07:48;;;;;;;7.03;3.53;;;;;;;-148.88;88.85;76628.41;4984338;28;20113;-85
2022/06/14 02:10:32;;;;;;;11.30;3.45;;;;;;;-148.88;88.89;76618.25;5001834;28;20030;-85
2022/06/14 02:13:17;;;;;;;8.50;3.40;;;;;;;-148.88;89.17;76638.56;5000356;28;20041;-85
2022/06/14 02:16:06;;;;;;;7.10;3.33;;;;;;;-148.88;89.52;76650.75;5001749;28;20252;-85
2022/06/14 02:18:39;;;;;;;7.00;3.42;;;;;;;-148.88;90.67;76646.69;5002186;28;20030;-85
2022/06/14 02:21:16;;;;;;;6.95;3.30;;;;;;;-148.88;90.09;76638.56;4997830;28;20026;-85
2022/06/14 02:23:46;;;;;;;8.13;3.63;;;;;;;-148.88;90.18;76654.81;5000880;28;20049;-84
2022/06/14 02:26:22;;;;;;;7.10;3.15;;;;;;;-148.88;89.31;76642.63;4999965;28;20117;-85
2022/06/14 02:28:53;;;;;;;8.65;3.50;;;;;;;-148.88;90.19;76658.88;4999844;28;20041;-85
2022/06/14 02:31:30;;;;;;;6.15;3.60;;;;;;;-148.88;90.29;76662.94;5001360;28;20588;-84
2022/06/14 02:34:05;;;;;;;5.70;3.08;;;;;;;-148.88;90.66;76652.78;5001024;28;20038;-87
2022/06/14 02:36:52;;;;;;;6.20;3.42;;;;;;;-148.88;90.46;76660.91;5002622;28;20022;-87
2022/06/14 02:39:31;;;;;;;9.73;3.83;;;;;;;-148.88;90.61;76658.88;5002283;28;20034;-86
2022/06/14 02:42:05;;;;;;;8.50;3.15;;;;;;;-148.88;90.98;76656.84;5003817;28;20045;-86
2022/06/14 02:44:38;;;;;;;9.13;3.65;;;;;;;-148.88;90.73;76654.81;5001635;28;20029;-87
2022/06/14 02:47:15;;;;;;;8.50;3.50;;;;;;;-148.88;90.10;76650.75;5001234;28;20037;-86
2022/06/14 02:49:47;;;;;;;8.63;3.50;;;;;;;-148.88;90.53;76654.81;4984882;28;20264;-86
2022/06/14 02:52:20;;;;;;;7.55;3.25;;;;;;;-148.88;91.76;76671.06;5001785;28;20030;-86
2022/06/14 02:54:58;;;;;;;6.15;3.53;;;;;;;-148.88;92.23;76685.28;5002150;28;20082;-87
2022/06/14 02:57:52;;;;;;;8.50;3.78;;;;;;;-148.88;92.79;76693.41;5001102;28;20086;-86
2022/06/14 03:00:23;;;;;;;8.85;4.20;;;;;;;-148.88;93.77;76695.44;5001899;28;20401;-86
2022/06/14 03:02:58;;;;;;;7.55;3.70;;;;;;;-148.88;93.21;76679.19;5001937;28;20030;-86
2022/06/14 03:05:39;;;;;;;4.68;3.17;;;;;;;-148.88;92.58;76675.13;4983895;28;20029;-85
2022/06/14 03:08:19;;;;;;;7.03;3.72;;;;;;;-148.88;92.06;76675.13;5003007;28;20026;-86
2022/06/14 03:11:10;;;;;;;5.15;3.40;;;;;;;-148.88;91.25;76677.16;5001891;28;20044;-86
2022/06/14 03:13:50;;;;;;;7.50;3.28;;;;;;;-148.88;91.95;76679.19;5000056;28;20549;-86
2022/06/14 03:16:31;;;;;;;7.43;3.65;;;;;;;-148.88;91.71;76683.25;5000894;28;20037;-85
2022/06/14 03:19:23;;;;;;;9.02;3.63;;;;;;;-148.88;91.12;76689.34;4984016;28;20030;-86
2022/06/14 03:21:59;;;;;;;9.35;3.42;;;;;;;-148.88;91.36;76711.69;4963699;28;20038;-86
2022/06/14 03:24:32;;;;;;;8.45;3.53;;;;;;;-148.88;93.92;76734.03;4999681;28;20053;-85
2022/06/14 03:27:12;;;;;;;6.47;4.03;;;;;;;-148.88;94.47;76744.19;4999755;28;20089;-83
2022/06/14 03:30:03;;;;;;;7.95;3.95;;;;;;;-148.88;95.86;76760.44;4990011;23;20049;-76
2022/06/14 03:33:11;;;;;;;8.52;3.85;;;;;;;-148.88;96.54;76760.44;4979634;28;20030;-76
2022/06/14 03:35:44;;;;;;;9.05;4.22;;;;;;;-148.88;95.83;76760.44;4994732;28;20099;-76
2022/06/14 03:38:16;;;;;;;9.47;3.93;;;;;;;-148.88;95.97;76750.28;4979228;28;20519;-76
2022/06/14 03:40:45;;;;;;;7.13;3.90;;;;;;;-148.88;96.27;76750.28;4978085;28;20162;-77
2022/06/14 03:43:11;;;;;;;8.90;3.90;;;;;;;-148.88;95.59;76744.19;4992720;28;20057;-76
2022/06/14 03:45:51;;;;;;;9.75;4.10;;;;;;;-148.88;95.33;76744.19;4977451;28;20026;-76
2022/06/14 03:48:17;;;;;;;6.97;3.97;;;;;;;-148.88;95.41;76738.09;4979494;28;20034;-77
2022/06/14 03:50:55;;;;;;;7.95;3.85;;;;;;;-148.88;94.80;76738.09;4993432;28;20374;-77
2022/06/14 03:53:41;;;;;;;10.57;5.93;;;;;;;-148.88;94.87;76736.06;4993717;28;20081;-76
2022/06/14 03:56:43;;;;;;;11.40;4.80;;;;;;;-148.88;94.15;76744.19;4977617;28;20031;-77
2022/06/14 03:59:08;;;;;;;10.93;5.32;;;;;;;-148.88;94.14;76750.28;4977531;28;20019;-76
2022/06/14 04:01:50;;;;;;;13.97;5.07;;;;;;;-148.88;94.59;76752.31;4976413;28;20037;-76
2022/06/14 04:04:44;;;;;;;12.85;5.30;;;;;;;-148.88;94.34;76756.41;4992005;28;20328;-76
2022/06/14 04:07:15;;;;;;;14.50;4.25;;;;;;;-148.88;94.87;76742.16;4977646;28;20387;-76
2022/06/14 04:10:01;;;;;;;8.02;3.85;;;;;;;-148.88;94.43;76742.16;4977146;28;20519;-76
2022/06/14 04:12:42;;;;;;;8.60;4.22;;;;;;;-148.88;94.82;76740.13;4995991;28;20022;-76
2022/06/14 04:15:26;;;;;;;7.28;3.95;;;;;;;-148.88;94.70;76738.09;4982055;28;20027;-76
2022/06/14 04:18:36;;;;;;;7.07;4.47;;;;;;;-148.88;94.44;76740.13;4981444;28;20026;-76
2022/06/14 04:21:34;;;;;;;8.10;4.38;;;;;;;-148.88;95.31;76732.00;4978721;28;20034;-76
2022/06/14 04:24:25;;;;;;;8.55;4.63;;;;;;;-148.88;94.87;76723.88;4976872;28;20365;-76
2022/06/14 04:26:57;;;;;;;10.43;3.92;;;;;;;-148.88;94.78;76715.75;4975217;28;20030;-76
2022/06/14 04:29:48;;;;;;;13.43;4.45;;;;;;;-148.88;94.84;76705.59;4974670;28;20089;-76
2022/06/14 04:32:53;;;;;;;9.35;4.43;;;;;;;-148.88;94.54;76687.31;4976301;28;20025;-76
2022/06/14 04:35:34;;;;;;;8.98;4.45;;;;;;;-148.88;95.11;76679.19;4975844;28;20492;-77
2022/06/14 04:38:08;;;;;;;8.60;3.92;;;;;;;-148.88;94.58;76675.13;4975844;28;20027;-76
2022/06/14 04:40:47;;;;;;;10.50;4.85;;;;;;;-148.88;94.72;76671.06;4975423;28;20058;-76
2022/06/14 04:43:19;;;;;;;8.70;4.47;;;;;;;-148.88;94.46;76667.00;4990402;28;20023;-76
2022/06/14 04:45:56;;;;;;;9.85;4.70;;;;;;;-148.88;94.62;76654.81;4975705;28;20023;-76
2022/06/14 04:48:30;;;;;;;9.55;4.30;;;;;;;-148.88;94.54;76648.72;4990127;28;20538;-76
2022/06/14 04:51:06;;;;;;;7.45;3.92;;;;;;;-148.88;94.49;76644.66;4975171;28;20050;-76
2022/06/14 04:53:51;;;;;;;13.55;4.25;;;;;;;-148.88;94.55;76642.63;4975374;28;20074;-76
2022/06/14 04:56:25;;;;;;;6.90;4.00;;;;;;;-148.88;94.05;76652.78;4976268;28;20022;-76
2022/06/14 04:58:55;;;;;;;11.52;3.95;;;;;;;-148.88;94.23;76644.66;4978598;28;20049;-76
2022/06/14 05:01:33;;;;;;;10.82;3.95;;;;;;;-148.88;93.77;76634.50;4978432;28;20027;-76
2022/06/14 05:04:06;;;;;;;8.90;4.32;;;;;;;-148.88;97.56;76624.34;4979067;28;20106;-76
2022/06/14 05:06:43;;;;;;;12.07;4.72;;;;;;;-148.88;99.35;76624.34;4978730;28;20420;-76
2022/06/14 05:09:15;;;;;;;15.07;5.40;;;;;;;-148.88;100.00;76630.44;4993401;28;20031;-76
2022/06/14 05:11:49;;;;;;;13.23;5.30;;;;;;;-148.88;100.00;76642.63;4976810;28;20023;-76
2022/06/14 05:14:30;;;;;;;11.18;4.82;;;;;;;-148.88;100.00;76648.72;4976091;28;20089;-76
2022/06/14 05:17:05;;;;;;;8.98;5.30;;;;;;;-148.88;100.00;76642.63;4976112;28;20023;-76
2022/06/14 05:19:53;;;;;;;8.52;4.82;;;;;;;-148.88;100.00;76654.81;4977320;28;20033;-76
2022/06/14 05:22:30;;;;;;;10.55;5.22;;;;;;;-148.88;100.00;76640.59;4976940;28;20042;-78
2022/06/14 05:24:56;;;;;;;9.40;5.40;;;;;;;-148.88;100.00;76640.59;4978418;28;20110;-76
2022/06/14 05:27:43;;;;;;;11.48;5.63;;;;;;;-148.88;100.00;76618.25;4992778;28;20034;-76
2022/06/14 05:30:22;;;;;;;12.15;5.38;;;;;;;-148.88;100.00;76626.38;4976628;28;20114;-76
2022/06/14 05:32:58;;;;;;;8.75;4.90;;;;;;;-148.88;100.00;76597.91;4977548;28;20120;-77
2022/06/14 05:35:32;;;;;;;10.60;4.80;;;;;;;-148.88;100.00;76593.84;4976233;28;20045;-76
2022/06/14 05:38:25;;;;;;;9.43;4.88;;;;;;;-148.88;100.00;76581.66;4977522;28;20033;-76
2022/06/14 05:41:03;;;;;;;9.23;4.95;;;;;;;-148.88;99.63;76565.41;4976044;28;20031;-76
2022/06/14 05:43:31;;;;;;;9.70;4.88;;;;;;;-148.88;99.14;76549.16;4992376;28;20113;-76
2022/06/14 05:46:26;;;;;;;8.13;4.45;;;;;;;-148.88;98.00;76526.81;4977097;28;20023;-76
2022/06/14 05:48:58;;;;;;;8.02;4.07;;;;;;;-148.88;97.04;76518.69;4977275;28;20557;-76
2022/06/14 05:51:29;;;;;;;7.88;3.90;;;;;;;-148.88;94.66;76522.75;4977076;28;20034;-76
2022/06/14 05:54:07;;;;;;;8.82;3.85;;;;;;;-148.88;94.98;76504.47;4991991;28;20054;-76
2022/06/14 05:56:38;;;;;;;11.68;4.88;;;;;;;-148.88;94.48;76492.28;4977364;28;20073;-76
2022/06/14 05:59:32;;;;;;;7.88;4.00;;;;;;;-148.88;93.92;76480.09;4976825;28;20034;-76
2022/06/14 06:02:44;;;;;;;9.23;4.30;;;;;;;-148.88;93.09;76476.03;4977062;28;20377;-76
2022/06/14 06:05:27;;;;;;;8.82;4.28;;;;;;;-148.88;93.24;76476.03;4975062;28;20502;-76
2022/06/14 06:07:59;;;;;;;7.97;4.25;;;;;;;-148.88;94.31;76469.94;4976693;28;20031;-76
2022/06/14 06:10:33;;;;;;;14.07;4.68;;;;;;;-148.88;93.81;76467.91;4976946;28;20133;-76
2022/06/14 06:13:09;;;;;;;6.22;4.30;;;;;;;-148.88;93.75;76445.56;4976700;28;20098;-76
2022/06/14 06:15:54;;;;;;;10.73;4.85;;;;;;;-148.88;92.28;76449.63;4976878;28;20392;-76
2022/06/14 06:18:31;;;;;;;8.40;4.70;;;;;;;-148.88;92.33;76431.34;4975433;28;20023;-76
2022/06/14 06:21:26;;;;;;;9.45;4.78;;;;;;;-148.88;91.42;76435.41;4976901;28;20033;-77
2022/06/14 06:23:58;;;;;;;8.50;4.22;;;;;;;-148.88;91.29;76425.25;4976643;28;20388;-76
2022/06/14 06:26:28;;;;;;;9.23;4.20;;;;;;;-148.88;90.85;76406.94;4976323;28;20027;-76
2022/06/14 06:29:03;;;;;;;14.15;4.45;;;;;;;-148.88;90.51;76415.06;4976232;28;20027;-76
2022/06/14 06:31:31;;;;;;;9.35;4.35;;;;;;;-148.88;89.65;76404.91;4976526;28;20026;-74
2022/06/14 06:33:59;;;;;;;9.93;4.82;;;;;;;-148.88;90.37;76390.69;4974989;28;20033;-76
2022/06/14 06:36:41;;;;;;;7.35;4.30;;;;;;;-148.88;89.22;76384.59;4991092;28;20500;-77
2022/06/14 06:39:36;;;;;;;9.32;4.75;;;;;;;-148.88;89.64;76368.34;4991270;28;20043;-76
2022/06/14 06:42:04;;;;;;;;;;;;;;;-148.88;89.41;76356.16;4975459;28;20030;-76
2022/06/14 06:44:54;;;;;;;8.35;4.35;;;;;;;-148.88;88.80;76364.28;4974975;28;19910;-76
2022/06/14 06:47:33;;;;;;;10.57;4.47;;;;;;;-148.88;89.46;76333.81;4976424;28;20098;-76
2022/06/14 06:50:19;;;;;;;9.07;4.05;;;;;;;-148.88;88.82;76313.50;4975918;28;20460;-76
2022/06/14 06:52:50;;;;;;;6.47;3.85;;;;;;;-148.88;89.26;76321.63;4976071;28;20026;-76
2022/06/14 06:55:57;;;;;;;6.88;4.15;;;;;;;-148.88;89.87;76309.44;4976112;28;20044;-77
2022/06/14 06:58:35;;;;;;;12.30;4.93;;;;;;;-148.88;88.58;76305.38;4990930;28;20081;-76
2022/06/14 07:01:06;;;;;;;10.57;4.43;;;;;;;-148.88;89.02;76297.25;4975873;28;20023;-76
2022/06/14 07:03:47;;;;;;;7.85;4.00;;;;;;;-148.88;88.17;76299.28;4976269;28;20023;-77
2022/06/14 07:06:19;;;;;;;8.10;3.70;;;;;;;-148.88;86.70;76305.38;4991122;28;20100;-76
2022/06/14 07:08:52;;;;;;;6.60;3.63;;;;;;;-148.88;85.68;76301.31;4990670;28;20054;-76
2022/06/14 07:11:23;;;;;;;8.90;3.60;;;;;;;-148.88;82.48;76272.88;4990546;28;20407;-76
2022/06/14 07:14:11;;;;;;;8.02;3.20;;;;;;;-148.88;82.85;76287.09;4990858;28;20476;-76
2022/06/14 07:16:45;;;;;;;9.00;3.40;;;;;;;-148.88;81.73;76289.13;4975708;28;20030;-77
2022/06/14 07:19:23;;;;;;;6.45;3.63;;;;;;;-148.88;81.01;76268.81;4974013;28;20027;-76
2022/06/14 07:22:03;;;;;;;9.25;3.20;;;;;;;-148.88;78.94;76250.53;4975649;28;20026;-76
2022/06/14 07:24:35;;;;;;;6.10;3.15;;;;;;;-148.88;79.87;76260.69;4975757;28;20050;-76
2022/06/14 07:27:11;;;;;;;10.35;3.72;;;;;;;-148.88;78.79;76248.50;4975933;28;20027;-76
2022/06/14 07:29:46;;;;;;;6.82;3.15;;;;;;;-148.88;79.46;76232.25;4975365;28;20031;-77
2022/06/14 07:32:17;;;;;;;10.13;3.10;;;;;;;-148.88;79.58;76228.19;4975588;28;20027;-77
2022/06/14 07:34:44;;;;;;;6.03;2.92;;;;;;;-148.88;77.60;76226.16;4975686;28;20077;-77
2022/06/14 07:37:18;;;;;;;9.38;3.00;;;;;;;-148.88;77.71;76205.84;4990584;28;20089;-76
2022/06/14 07:39:49;;;;;;;8.85;3.17;;;;;;;-148.88;76.54;76191.63;4990458;28;20027;-77
2022/06/14 07:42:23;;;;;;;6.43;2.30;;;;;;;-148.88;74.73;76207.88;4973979;28;20089;-77
2022/06/14 07:44:57;;;;;;;8.70;2.40;;;;;;;-148.88;73.77;76185.53;4990176;28;20046;-76
2022/06/14 07:47:33;;;;;;;7.78;3.20;;;;;;;-148.88;75.80;76171.31;4973930;28;20031;-77
2022/06/14 07:50:29;;;;;;;7.53;2.45;;;;;;;-148.88;74.56;76169.28;4975132;28;20026;-76
2022/06/14 07:53:12;;;;;;;8.25;2.80;;;;;;;-148.88;74.33;76142.88;4974890;28;20030;-76
2022/06/14 07:55:51;;;;;;;8.18;2.70;;;;;;;-148.88;73.11;76122.56;4975040;28;20026;-76
2022/06/14 07:58:34;;;;;;;5.63;2.80;;;;;;;-148.88;72.52;76118.47;4975046;28;20031;-76
2022/06/14 08:01:09;;;;;;;9.32;2.88;;;;;;;-148.88;71.48;76106.28;4974992;28;20026;-76
2022/06/14 08:03:48;;;;;;;8.73;3.38;;;;;;;-148.88;73.44;76098.16;4975416;28;20073;-77
2022/06/14 08:06:23;;;;;;;7.15;3.15;;;;;;;-148.88;73.24;76085.97;4975127;28;20027;-76
2022/06/14 08:08:58;;;;;;;10.05;3.10;;;;;;;-148.88;72.10;76073.78;4974795;28;20036;-76
2022/06/14 08:11:32;;;;;;;8.48;2.75;;;;;;;-148.88;70.69;76065.66;4989999;28;20026;-76
2022/06/14 08:14:06;;;;;;;7.82;2.70;;;;;;;-148.88;67.96;76057.53;4974926;28;20113;-77
2022/06/14 08:16:32;;;;;;;6.35;3.20;;;;;;;-148.88;68.14;76047.38;4975055;28;20084;-76
2022/06/14 08:19:07;;;;;;;5.97;2.63;;;;;;;-148.88;68.98;76016.91;4974697;28;20035;-77
2022/06/14 08:21:41;;;;;;;8.95;2.80;;;;;;;-148.88;68.90;76037.22;4974857;28;20019;-77
2022/06/14 08:24:21;;;;;;;;;;;;;;;-148.88;68.47;76029.09;4975054;28;20023;-77
2022/06/14 08:27:24;;;;;;;6.63;2.67;;;;;;;-148.88;67.62;76045.34;4973936;28;20291;-77
2022/06/14 08:29:59;;;;;;;6.63;2.55;;;;;;;-148.88;66.81;76029.09;4962996;28;20122;-76
2022/06/14 08:32:48;;;;;;;5.40;2.35;;;;;;;-148.88;66.37;76035.19;4978294;28;20122;-77
2022/06/14 08:35:34;;;;;;;6.60;2.40;;;;;;;-148.88;67.66;76039.25;4978788;28;20392;-76
2022/06/14 08:38:14;;;;;;;5.13;2.47;;;;;;;-148.88;66.11;76025.03;4977436;28;20026;-76
2022/06/14 08:41:21;;;;;;;8.13;2.55;;;;;;;-148.88;66.98;76047.38;4979031;28;20027;-76
2022/06/14 08:43:52;;;;;;;11.18;2.50;;;;;;;-148.88;67.29;76073.78;4977848;28;20038;-76
2022/06/14 08:46:23;;;;;;;7.93;2.45;;;;;;;-148.88;67.93;76039.25;4978372;28;20106;-77
2022/06/14 08:49:10;;;;;;;8.30;2.70;;;;;;;-148.88;66.63;76039.25;4977210;28;20103;-76
2022/06/14 08:52:17;;;;;;;6.82;2.67;;;;;;;-148.88;66.29;76057.53;4978589;28;20050;-76
2022/06/14 08:55:12;;;;;;;8.02;2.72;;;;;;;-148.88;67.20;76035.19;4993268;28;20097;-77
2022/06/14 08:57:49;;;;;;;8.73;2.85;;;;;;;-148.88;66.55;76025.03;4978249;28;20033;-76
2022/06/14 09:00:51;;;;;;;9.18;2.60;;;;;;;-148.88;65.43;76025.03;4978128;28;20387;-77
2022/06/14 09:03:39;;;;;;;9.60;2.40;;;;;;;-148.88;66.86;76006.75;4978133;28;20054;-77
2022/06/14 09:06:13;;;;;;;7.70;2.50;;;;;;;-148.88;64.81;76045.34;4976856;28;20022;-77
2022/06/14 09:09:02;;;;;;;6.57;2.20;;;;;;;-148.88;65.27;76004.72;4978310;28;20030;-76
2022/06/14 09:12:04;;;;;;;6.55;2.42;;;;;;;-148.88;65.03;75994.56;4978339;28;20030;-76
2022/06/14 09:15:02;;;;;;;7.65;2.20;;;;;;;-148.88;65.53;75996.59;4992904;28;20027;-76
2022/06/14 09:18:05;;;;;;;4.80;2.00;;;;;;;-148.88;64.83;75992.53;4978065;28;20054;-76
2022/06/14 09:20:44;;;;;;;5.47;2.67;;;;;;;-148.88;65.75;76023.00;4978234;28;20081;-76
2022/06/14 09:23:20;;;;;;;7.72;2.65;;;;;;;-148.88;65.94;76012.84;4977722;28;20484;-76
2022/06/14 09:26:06;;;;;;;6.65;2.50;;;;;;;-148.88;67.81;75982.38;4977623;28;20033;-77
2022/06/14 09:31:46;;;;;;;9.43;2.50;;;;;;;-148.88;61.66;75980.34;5039411;23;20115;-84
2022/06/14 09:34:22;;;;;;;;;;;;;;;-148.88;59.31;75955.97;5002096;28;20105;-83
2022/06/14 09:36:50;;;;;;;4.95;1.90;;;;;;;-148.88;58.10;75955.97;5005616;28;19909;-83
2022/06/14 09:39:53;;;;;;;6.55;1.90;;;;;;;-148.88;58.55;75976.28;5002188;28;20022;-83
2022/06/14 09:42:37;;;;;;;7.57;2.47;;;;;;;-148.88;58.22;75933.63;4999940;28;20094;-83
2022/06/14 09:45:37;;;;;;;5.28;2.10;;;;;;;-148.88;59.33;75830.03;4999245;28;20022;-82
2022/06/14 09:48:26;;;;;;;8.00;2.20;;;;;;;-148.88;57.83;75789.41;5004556;28;20052;-83
2022/06/14 09:51:29;;;;;;;3.90;1.98;;;;;;;-148.88;55.99;75795.50;5020314;28;20025;-83
2022/06/14 09:54:28;;;;;;;6.38;2.78;;;;;;;-148.88;58.07;75846.28;5023306;28;20053;-83
2022/06/14 09:57:35;;;;;;;4.43;2.80;;;;;;;-148.88;57.54;75858.47;5022338;28;20081;-83
2022/06/14 10:00:21;;;;;;;10.18;2.80;;;;;;;-148.88;58.63;75886.91;5022116;28;20144;-83
2022/06/14 10:03:33;;;;;;;6.15;2.60;;;;;;;-148.88;60.38;75903.16;5023836;28;20037;-83
2022/06/14 10:06:22;;;;;;;8.38;2.72;;;;;;;-148.88;58.75;75907.22;5023563;28;20022;-83
2022/06/14 10:09:05;;;;;;;7.25;2.58;;;;;;;-148.88;58.71;75899.09;5022335;28;20041;-84
2022/06/14 10:11:56;;;;;;;6.05;2.65;;;;;;;-148.88;59.73;75854.41;5005876;28;20104;-83
2022/06/14 10:14:33;;;;;;;5.00;2.58;;;;;;;-148.88;59.63;75878.78;5005856;28;20037;-83
2022/06/14 10:17:12;;;;;;;7.07;2.85;;;;;;;-148.88;61.35;75870.66;5024502;28;20017;-83
2022/06/14 10:19:59;;;;;;;11.25;2.80;;;;;;;-148.88;60.42;75813.78;5016677;28;20021;-83
2022/06/14 10:22:43;;;;;;;8.30;2.78;;;;;;;-148.88;56.78;75805.66;4999417;28;20056;-82
2022/06/14 10:25:28;;;;;;;5.55;2.47;;;;;;;-148.88;57.79;75781.28;5019612;28;20072;-83
2022/06/14 10:28:13;;;;;;;8.07;2.72;;;;;;;-148.88;57.22;75767.06;5002318;28;20022;-83
2022/06/14 10:31:05;;;;;;;6.53;2.83;;;;;;;-148.88;57.34;75767.06;5018173;28;20033;-83
2022/06/14 10:33:49;;;;;;;7.72;2.20;;;;;;;-148.88;56.32;75765.03;5017324;28;20018;-83
2022/06/14 10:36:36;;;;;;;6.90;2.53;;;;;;;-148.88;56.77;75795.50;5002204;28;20026;-83
2022/06/14 10:39:33;;;;;;;5.43;2.10;;;;;;;-148.88;55.44;75765.03;5021881;28;20030;-83
2022/06/14 10:42:09;;;;;;;7.68;2.22;;;;;;;-148.88;54.06;75728.47;5020144;28;20395;-83
2022/06/14 10:45:09;;;;;;;7.72;2.17;;;;;;;-148.88;54.34;75689.88;5019459;28;20105;-83
2022/06/14 10:48:10;;;;;;;6.82;2.30;;;;;;;-148.88;53.84;75655.34;5016808;28;20065;-83
2022/06/14 10:51:10;;;;;;;4.93;1.98;;;;;;;-148.88;52.37;75608.63;5020704;28;20621;-83
2022/06/14 10:53:48;;;;;;;7.30;1.98;;;;;;;-148.88;50.09;75561.94;4986162;28;20045;-83
2022/06/14 10:56:40;;;;;;;8.95;2.05;;;;;;;-148.88;49.98;75517.25;5019276;28;20060;-83
2022/06/14 10:59:55;;;;;;;5.82;1.80;;;;;;;-148.88;47.92;75458.34;5016206;28;20026;-83
2022/06/14 11:02:55;;;;;;;4.88;1.90;;;;;;;-148.88;50.85;75618.78;5017157;28;20396;-82
2022/06/14 11:05:53;;;;;;;7.28;1.80;;;;;;;-148.88;50.38;75683.78;5005308;28;20448;-82
2022/06/14 11:08:43;;;;;;;6.20;2.33;;;;;;;-148.88;52.69;75687.84;4974937;28;20128;-83
2022/06/14 11:11:31;;;;;;;5.63;1.95;;;;;;;-148.88;52.29;75685.81;5001261;28;20030;-83
2022/06/14 11:14:08;;;;;;;6.57;1.60;;;;;;;-148.88;49.88;75683.78;5018445;28;20026;-83
2022/06/14 11:17:07;;;;;;;4.28;1.85;;;;;;;-148.88;51.04;75626.91;5018900;28;20030;-82
2022/06/14 11:19:51;;;;;;;7.07;1.95;;;;;;;-148.88;50.49;75590.34;5016603;28;20025;-83
2022/06/14 11:22:35;;;;;;;5.32;1.80;;;;;;;-148.88;49.72;75545.69;5017537;28;20026;-83
2022/06/14 11:25:28;;;;;;;6.30;1.95;;;;;;;-148.88;48.24;75582.22;5017390;28;20022;-83
2022/06/14 11:28:21;;;;;;;5.57;2.03;;;;;;;-148.88;48.27;75533.50;5019593;28;20036;-84
2022/06/14 11:31:00;;;;;;;6.53;2.25;;;;;;;-148.88;48.93;75525.38;5020136;28;20029;-83
2022/06/14 11:33:41;;;;;;;6.00;1.80;;;;;;;-148.88;48.46;75498.97;5021177;28;20041;-83
2022/06/14 11:36:06;;;;;;;6.95;1.80;;;;;;;-148.88;48.95;75470.53;4998472;28;20120;-83
2022/06/14 11:38:47;;;;;;;5.88;2.00;;;;;;;-148.88;46.42;75440.06;5016133;28;20068;-82
2022/06/14 11:41:17;;;;;;;5.15;1.75;;;;;;;-148.88;47.87;75438.03;5016437;28;20022;-83
2022/06/14 11:44:39;;;;;;;5.45;2.08;;;;;;;-148.88;46.01;75330.38;5015280;28;20018;-83
2022/06/14 11:47:15;;;;;;;6.82;2.25;;;;;;;-148.88;45.31;75301.94;4984918;28;20040;-84
2022/06/14 11:49:54;;;;;;;10.20;2.08;;;;;;;-148.88;45.95;75356.78;5019299;28;20049;-83
2022/06/14 11:52:29;;;;;;;5.55;2.20;;;;;;;-148.88;45.51;75360.84;5016726;28;20026;-83
2022/06/14 11:55:12;;;;;;;8.55;1.92;;;;;;;-148.88;47.81;75405.53;5017700;28;20061;-84
2022/06/14 11:57:57;;;;;;;7.63;1.77;;;;;;;-148.88;45.48;75366.94;5018444;28;20465;-84
2022/06/14 12:00:42;;;;;;;6.72;2.08;;;;;;;-148.88;46.87;75397.41;5017058;28;20032;-83
2022/06/14 12:03:40;;;;;;;5.32;1.80;;;;;;;-148.88;45.79;75362.88;5017983;28;20018;-83
2022/06/14 12:06:33;;;;;;;4.07;1.70;;;;;;;-148.88;47.99;75460.38;5017968;28;20088;-84
2022/06/14 12:09:35;;;;;;;7.15;2.00;;;;;;;-148.88;46.14;75289.75;5018080;28;20384;-83
2022/06/14 12:12:26;;;;;;;6.45;1.73;;;;;;;-148.88;44.73;75226.81;5019402;28;20076;-83
2022/06/14 12:14:54;;;;;;;4.72;1.67;;;;;;;-148.88;44.70;75192.28;5014600;28;20026;-82
2022/06/14 12:17:55;;;;;;;8.85;1.88;;;;;;;-148.88;44.12;75245.09;5015802;28;20026;-84
2022/06/14 12:20:25;;;;;;;7.78;2.20;;;;;;;-148.88;44.30;75350.69;5014240;28;20026;-83
2022/06/14 12:23:10;;;;;;;5.00;1.63;;;;;;;-148.88;45.00;75389.28;4998112;28;20392;-84
2022/06/14 12:29:12;;;;;;;3.65;1.70;;;;;;;-148.88;48.36;75403.50;5019145;28;20443;-83